Time;durP1;ratioP1;P1;durP2;ratioP2;P2;SDS_P1;SDS_P2;PMS_P1;PMS_P2;Temp;Humidity;BMP_temperature;BMP_pressure;BME280_temperature;BME280_humidity;BME280_pressure;Samples;Min_cycle;Max_cycle;Signal;HPM_P1;HPM_P2
2022/05/18 00:01:34;;;;;;;8.05;4.57;;;;;;;13.75;100.00;90832.19;4995751;28;20041;-61
2022/05/18 00:04:00;;;;;;;7.65;5.07;;;;;;;13.60;100.00;90841.59;4995718;28;20034;-61
2022/05/18 00:06:26;;;;;;;8.35;5.72;;;;;;;13.44;100.00;90833.41;4995697;28;20034;-61
2022/05/18 00:08:51;;;;;;;8.85;4.95;;;;;;;13.45;100.00;90824.28;4995487;28;20030;-61
2022/05/18 00:11:19;;;;;;;6.68;5.03;;;;;;;13.43;100.00;90823.06;4995574;28;20038;-61
2022/05/18 00:13:47;;;;;;;5.18;4.20;;;;;;;13.39;100.00;90811.44;4995560;28;20034;-61
2022/05/18 00:16:13;;;;;;;4.57;3.88;;;;;;;13.32;100.00;90814.66;4995497;28;20042;-61
2022/05/18 00:18:39;;;;;;;3.75;3.35;;;;;;;13.19;100.00;90799.66;4995540;28;20093;-61
2022/05/18 00:21:05;;;;;;;5.20;3.85;;;;;;;13.32;100.00;90825.34;4995390;28;20035;-61
2022/05/18 00:23:31;;;;;;;4.25;3.60;;;;;;;13.26;100.00;90820.53;4995395;28;20030;-61
2022/05/18 00:25:57;;;;;;;4.63;3.60;;;;;;;13.19;100.00;90824.50;4994049;28;20460;-61
2022/05/18 00:28:23;;;;;;;3.63;3.25;;;;;;;13.16;100.00;90821.66;4995222;28;20547;-61
2022/05/18 00:30:49;;;;;;;5.40;3.92;;;;;;;13.29;100.00;90819.88;4995151;28;20030;-61
2022/05/18 00:33:14;;;;;;;4.10;3.10;;;;;;;13.37;100.00;90827.81;4995190;28;20030;-61
2022/05/18 00:35:41;;;;;;;5.20;3.70;;;;;;;13.36;100.00;90812.88;4995085;28;20113;-61
2022/05/18 00:38:08;;;;;;;5.55;3.20;;;;;;;13.37;100.00;90811.78;4995028;28;20043;-61
2022/05/18 00:40:35;;;;;;;2.63;2.40;;;;;;;13.34;100.00;90803.63;4995144;28;20026;-61
2022/05/18 00:43:00;;;;;;;6.05;3.70;;;;;;;13.35;100.00;90797.19;4995625;28;20109;-61
2022/05/18 00:45:26;;;;;;;4.03;3.30;;;;;;;13.32;100.00;90801.28;4995233;28;20026;-61
2022/05/18 00:47:52;;;;;;;4.68;3.65;;;;;;;13.35;100.00;90791.84;4994925;28;20041;-61
2022/05/18 00:50:23;;;;;;;4.75;3.22;;;;;;;13.30;100.00;90795.50;4994051;28;20070;-61
2022/05/18 00:53:09;;;;;;;3.75;3.35;;;;;;;13.26;100.00;90786.59;4993803;28;20026;-61
2022/05/18 00:55:38;;;;;;;4.47;3.70;;;;;;;13.26;100.00;90791.16;4993906;28;20054;-61
2022/05/18 00:58:18;;;;;;;3.17;2.83;;;;;;;13.20;100.00;90782.53;4993707;28;20496;-61
2022/05/18 01:00:45;;;;;;;4.43;3.20;;;;;;;13.27;100.00;90779.34;4993396;28;20032;-61
2022/05/18 01:03:17;;;;;;;7.60;4.22;;;;;;;13.21;100.00;90770.75;4993495;28;20031;-61
2022/05/18 01:05:45;;;;;;;3.95;3.38;;;;;;;13.28;100.00;90771.00;4993465;28;20040;-62
2022/05/18 01:08:19;;;;;;;4.80;3.50;;;;;;;13.25;100.00;90774.31;4993184;28;20030;-62
2022/05/18 01:10:44;;;;;;;4.05;3.40;;;;;;;13.22;100.00;90772.31;4993288;28;20031;-61
2022/05/18 01:13:09;;;;;;;4.35;3.50;;;;;;;13.18;100.00;90766.06;4993392;28;20121;-62
2022/05/18 01:15:35;;;;;;;5.25;3.38;;;;;;;13.17;100.00;90769.81;4993354;28;20420;-62
2022/05/18 01:18:01;;;;;;;9.70;4.20;;;;;;;13.10;100.00;90769.56;4993195;28;20037;-62
2022/05/18 01:20:32;;;;;;;5.15;3.03;;;;;;;13.09;100.00;90770.66;4993093;28;20031;-62
2022/05/18 01:23:22;;;;;;;3.92;3.53;;;;;;;13.08;100.00;90771.75;4993226;28;20026;-62
2022/05/18 01:26:10;;;;;;;4.10;3.35;;;;;;;13.05;100.00;90769.75;4993187;28;20030;-62
2022/05/18 01:28:40;;;;;;;4.20;2.88;;;;;;;12.99;100.00;90779.06;4993039;28;20022;-63
2022/05/18 01:31:06;;;;;;;3.75;3.20;;;;;;;12.85;100.00;90764.09;4993092;28;20037;-63
2022/05/18 01:33:32;;;;;;;3.80;3.40;;;;;;;12.65;100.00;90778.22;4993047;28;20022;-61
2022/05/18 01:35:58;;;;;;;5.05;3.58;;;;;;;12.52;100.00;90782.69;4992988;28;20466;-61
2022/05/18 01:38:23;;;;;;;5.38;3.70;;;;;;;12.39;100.00;90783.72;4992895;28;20081;-61
2022/05/18 01:41:01;;;;;;;4.65;3.30;;;;;;;12.28;100.00;90796.63;4992828;28;20042;-62
2022/05/18 01:43:54;;;;;;;6.00;4.05;;;;;;;12.17;100.00;90787.44;4992830;28;20046;-61
2022/05/18 01:46:21;;;;;;;4.57;4.10;;;;;;;12.16;100.00;90788.53;4993290;28;20046;-61
2022/05/18 01:48:52;;;;;;;7.32;4.53;;;;;;;12.25;100.00;90785.81;4992710;28;20056;-61
2022/05/18 01:51:31;;;;;;;7.38;4.78;;;;;;;12.24;100.00;90789.59;4955591;28;1109081;-61
2022/05/18 01:53:57;;;;;;;7.32;4.78;;;;;;;12.23;100.00;90791.47;4993749;28;20505;-61
2022/05/18 01:56:23;;;;;;;6.15;3.80;;;;;;;12.09;100.00;90785.56;4993658;28;20038;-61
2022/05/18 01:58:48;;;;;;;4.75;3.92;;;;;;;12.04;100.00;90790.31;4993436;28;20038;-61
2022/05/18 02:01:13;;;;;;;3.75;3.45;;;;;;;11.95;100.00;90782.34;4993557;28;20038;-61
2022/05/18 02:03:39;;;;;;;5.50;4.07;;;;;;;11.99;100.00;90785.91;4993537;28;20096;-61
2022/05/18 02:06:04;;;;;;;4.38;3.38;;;;;;;12.04;100.00;90788.44;4993325;28;20042;-61
2022/05/18 02:08:30;;;;;;;8.77;3.92;;;;;;;12.06;100.00;90780.09;4993252;28;20047;-62
2022/05/18 02:10:55;;;;;;;4.43;3.70;;;;;;;12.03;100.00;90786.88;4993433;28;20468;-61
2022/05/18 02:13:22;;;;;;;6.25;3.58;;;;;;;12.03;100.00;90789.53;4993278;28;20081;-61
2022/05/18 02:15:47;;;;;;;6.35;3.50;;;;;;;12.02;100.00;90784.53;4993333;28;20038;-61
2022/05/18 02:18:13;;;;;;;5.20;3.60;;;;;;;11.99;100.00;90791.25;4993210;28;20552;-62
2022/05/18 02:20:39;;;;;;;3.38;3.08;;;;;;;11.98;100.00;90790.47;4992355;28;20401;-61
2022/05/18 02:23:05;;;;;;;3.55;3.05;;;;;;;12.01;100.00;90789.06;4993157;28;20050;-62
2022/05/18 02:25:32;;;;;;;2.95;2.67;;;;;;;12.05;100.00;90791.88;4993089;28;20121;-62
2022/05/18 02:27:59;;;;;;;3.00;2.60;;;;;;;11.87;100.00;90791.16;4992969;28;20038;-62
2022/05/18 02:30:24;;;;;;;3.97;3.03;;;;;;;11.74;100.00;90787.56;4991719;28;20129;-61
2022/05/18 02:32:50;;;;;;;2.70;2.40;;;;;;;11.68;100.00;90784.31;4992935;28;20134;-61
2022/05/18 02:35:16;;;;;;;2.90;2.58;;;;;;;11.63;100.00;90787.13;4992925;28;20049;-61
2022/05/18 02:37:41;;;;;;;3.45;2.92;;;;;;;11.58;100.00;90789.97;4992939;28;20054;-61
2022/05/18 02:40:09;;;;;;;4.22;3.20;;;;;;;11.53;100.00;90794.69;4992701;28;20125;-62
2022/05/18 02:42:34;;;;;;;3.42;3.10;;;;;;;11.44;100.00;90789.38;4992760;28;20074;-61
2022/05/18 02:45:00;;;;;;;4.30;2.80;;;;;;;11.47;100.00;90791.38;4992737;28;20073;-62
2022/05/18 02:47:25;;;;;;;3.25;2.92;;;;;;;11.46;100.00;90781.84;4992730;28;20034;-61
2022/05/18 02:49:51;;;;;;;4.35;3.03;;;;;;;11.45;100.00;90784.81;4992419;28;20049;-62
2022/05/18 02:52:17;;;;;;;4.10;3.65;;;;;;;11.46;100.00;90789.81;4992596;28;20059;-62
2022/05/18 02:57:26;;;;;;;3.22;2.97;;;;;;;11.48;100.00;90789.50;4992490;28;20049;-61
2022/05/18 02:59:52;;;;;;;4.30;3.15;;;;;;;11.49;100.00;90793.72;4992313;28;20038;-61
2022/05/18 03:02:18;;;;;;;4.82;2.90;;;;;;;11.46;100.00;90784.50;4992468;28;20042;-61
2022/05/18 03:04:43;;;;;;;5.38;3.35;;;;;;;11.50;100.00;90790.75;4992347;28;20425;-62
2022/05/18 03:07:09;;;;;;;3.65;2.60;;;;;;;11.60;100.00;90798.41;4992403;28;20034;-62
2022/05/18 03:09:34;;;;;;;3.75;3.17;;;;;;;11.66;100.00;90789.13;4992212;28;20030;-62
2022/05/18 03:12:01;;;;;;;4.43;2.90;;;;;;;11.76;100.00;90796.03;4992337;28;20046;-62
2022/05/18 03:14:27;;;;;;;3.90;2.78;;;;;;;11.80;100.00;90798.84;4992176;28;20543;-62
2022/05/18 03:16:52;;;;;;;2.65;2.33;;;;;;;11.86;100.00;90792.28;4992223;28;20113;-62
2022/05/18 03:19:20;;;;;;;4.07;3.35;;;;;;;11.92;100.00;90798.97;4992062;28;20031;-61
2022/05/18 03:24:29;;;;;;;;;;;;;;;12.04;100.00;90804.44;4993589;28;20049;-61
2022/05/18 03:26:54;;;;;;;4.72;3.10;;;;;;;11.98;100.00;90805.69;4992496;28;19918;-61
2022/05/18 03:29:20;;;;;;;6.68;3.58;;;;;;;12.08;100.00;90807.22;4991982;28;20177;-61
2022/05/18 03:31:49;;;;;;;4.90;3.95;;;;;;;12.07;100.00;90801.13;4991943;28;20421;-63
2022/05/18 03:34:15;;;;;;;4.90;3.47;;;;;;;12.19;100.00;90808.44;4991985;28;20038;-61
2022/05/18 03:36:41;;;;;;;3.80;2.83;;;;;;;12.16;100.00;90804.53;4991906;28;20073;-61
2022/05/18 03:39:07;;;;;;;3.42;2.67;;;;;;;12.28;100.00;90804.63;4991814;28;20045;-61
2022/05/18 03:41:36;;;;;;;6.78;2.92;;;;;;;12.54;100.00;90807.16;4991942;28;20090;-62
2022/05/18 03:44:06;;;;;;;3.47;2.80;;;;;;;13.00;100.00;90802.00;4991896;28;20044;-62
2022/05/18 03:46:32;;;;;;;4.47;3.35;;;;;;;13.35;100.00;90800.63;4991755;28;20041;-61
2022/05/18 03:48:58;;;;;;;4.10;3.13;;;;;;;13.71;100.00;90793.84;4991542;28;20125;-62
2022/05/18 03:51:24;;;;;;;5.43;3.53;;;;;;;14.03;100.00;90806.38;4991677;28;20042;-61
2022/05/18 03:53:49;;;;;;;3.90;2.70;;;;;;;14.26;100.00;90808.66;4991785;28;20423;-61
2022/05/18 03:56:15;;;;;;;5.53;3.75;;;;;;;14.29;100.00;90808.00;4991750;28;20053;-61
2022/05/18 03:58:41;;;;;;;5.43;3.58;;;;;;;14.27;100.00;90823.59;4991558;28;20042;-61
2022/05/18 04:01:10;;;;;;;4.55;3.25;;;;;;;14.24;100.00;90821.59;4991636;28;20069;-61
2022/05/18 04:03:39;;;;;;;4.00;2.85;;;;;;;14.24;100.00;90821.59;4991425;28;20038;-61
2022/05/18 04:06:05;;;;;;;6.68;3.70;;;;;;;14.14;100.00;90827.38;4991631;28;20105;-61
2022/05/18 04:08:31;;;;;;;5.25;3.33;;;;;;;14.13;100.00;90829.28;4991706;28;20408;-61
2022/05/18 04:10:57;;;;;;;4.28;3.20;;;;;;;14.15;100.00;90831.59;4991415;28;20452;-61
2022/05/18 04:13:26;;;;;;;3.90;3.30;;;;;;;14.24;100.00;90829.63;4991439;28;20042;-61
2022/05/18 04:15:55;;;;;;;4.13;3.15;;;;;;;14.39;100.00;90829.75;4991330;28;20066;-61
2022/05/18 04:18:22;;;;;;;5.35;3.72;;;;;;;14.53;100.00;90836.72;4991288;28;20123;-61
2022/05/18 04:20:49;;;;;;;3.80;3.20;;;;;;;14.48;100.00;90827.00;4991287;28;20560;-60
2022/05/18 04:23:15;;;;;;;4.25;3.20;;;;;;;14.66;100.00;90833.69;4991307;28;20057;-62
2022/05/18 04:25:41;;;;;;;3.78;3.10;;;;;;;14.90;100.00;90838.25;4991325;28;20122;-61
2022/05/18 04:28:08;;;;;;;4.53;3.47;;;;;;;15.16;100.00;90835.22;4991289;28;20061;-63
2022/05/18 04:30:34;;;;;;;4.95;3.90;;;;;;;15.34;100.00;90837.63;4991353;28;20045;-63
2022/05/18 04:33:01;;;;;;;4.53;2.97;;;;;;;15.47;100.00;90823.06;4991350;28;20105;-62
2022/05/18 04:35:28;;;;;;;5.22;4.18;;;;;;;15.66;100.00;90828.63;4990011;28;20046;-62
2022/05/18 04:37:54;;;;;;;7.35;4.75;;;;;;;15.68;100.00;90822.91;4991130;28;20034;-63
2022/05/18 04:40:20;;;;;;;3.50;2.92;;;;;;;15.79;100.00;90824.75;4991168;28;20114;-62
2022/05/18 04:42:45;;;;;;;4.80;3.15;;;;;;;15.85;100.00;90828.75;4993436;28;20038;-62
2022/05/18 04:45:13;;;;;;;5.93;3.40;;;;;;;15.83;100.00;90831.00;5013479;28;20100;-62
2022/05/18 04:47:39;;;;;;;10.38;6.90;;;;;;;15.87;100.00;90826.50;5010798;28;20029;-63
2022/05/18 04:50:06;;;;;;;16.95;9.45;;;;;;;15.90;100.00;90829.63;5009660;28;20049;-62
2022/05/18 04:52:32;;;;;;;5.68;4.45;;;;;;;16.11;100.00;90819.47;5013667;28;20110;-63
2022/05/18 04:54:57;;;;;;;4.63;2.97;;;;;;;16.12;100.00;90826.38;5013062;28;20470;-64
2022/05/18 04:57:23;;;;;;;5.13;3.65;;;;;;;16.11;100.00;90822.91;5013431;28;20033;-63
2022/05/18 04:59:49;;;;;;;4.38;3.33;;;;;;;16.17;100.00;90826.91;5013196;28;20116;-63
2022/05/18 05:02:16;;;;;;;6.20;3.03;;;;;;;16.32;100.00;90830.72;5014241;28;20099;-63
2022/05/18 05:04:42;;;;;;;5.15;3.42;;;;;;;16.17;100.00;90828.81;5013845;28;20519;-63
2022/05/18 05:07:07;;;;;;;5.10;3.35;;;;;;;16.00;100.00;90835.28;5014376;28;20034;-63
2022/05/18 05:09:33;;;;;;;4.30;3.30;;;;;;;15.81;100.00;90827.88;5014044;28;20408;-62
2022/05/18 05:11:59;;;;;;;4.63;2.92;;;;;;;15.81;100.00;90833.25;5013976;28;20061;-62
2022/05/18 05:14:25;;;;;;;5.45;2.75;;;;;;;15.74;100.00;90838.41;5013853;28;20096;-63
2022/05/18 05:16:51;;;;;;;4.75;2.92;;;;;;;15.73;100.00;90830.69;5013698;28;20037;-63
2022/05/18 05:19:17;;;;;;;4.85;3.33;;;;;;;15.45;100.00;90838.69;5013496;28;20420;-61
2022/05/18 05:21:42;;;;;;;5.10;3.00;;;;;;;15.31;100.00;90849.03;5013777;28;20096;-61
2022/05/18 05:24:13;;;;;;;4.22;3.35;;;;;;;15.25;100.00;90841.22;5013750;28;20108;-61
2022/05/18 05:26:38;;;;;;;5.38;3.63;;;;;;;15.14;100.00;90842.00;5013576;28;20041;-62
2022/05/18 05:29:05;;;;;;;5.60;3.17;;;;;;;15.37;100.00;90847.66;5013491;28;20038;-62
2022/05/18 05:31:30;;;;;;;7.65;3.22;;;;;;;15.59;100.00;90839.13;5013593;28;20408;-63
2022/05/18 05:33:57;;;;;;;3.50;3.08;;;;;;;15.68;100.00;90839.78;5013456;28;20044;-62
2022/05/18 05:36:23;;;;;;;4.32;3.30;;;;;;;15.82;100.00;90845.53;5013538;28;20041;-62
2022/05/18 05:38:49;;;;;;;4.20;3.20;;;;;;;15.95;100.00;90848.16;5012867;28;20038;-64
2022/05/18 05:41:15;;;;;;;5.32;3.47;;;;;;;16.02;100.00;90843.75;5012729;28;20492;-63
2022/05/18 05:43:41;;;;;;;4.22;3.80;;;;;;;16.13;100.00;90844.03;5010657;28;20476;-63
2022/05/18 05:46:13;;;;;;;4.05;3.20;;;;;;;16.40;100.00;90850.47;5012039;28;20112;-63
2022/05/18 05:48:40;;;;;;;6.65;2.83;;;;;;;16.27;100.00;90855.16;5012052;28;20096;-64
2022/05/18 05:51:10;;;;;;;4.70;3.38;;;;;;;16.03;100.00;90856.03;5004692;28;20050;-63
2022/05/18 05:53:36;;;;;;;4.78;3.50;;;;;;;15.94;100.00;90857.31;5013098;28;20042;-63
2022/05/18 05:56:02;;;;;;;4.30;3.47;;;;;;;15.77;100.00;90863.75;5012246;28;20416;-63
2022/05/18 05:58:33;;;;;;;6.50;4.40;;;;;;;15.47;100.00;90868.66;5013060;28;20069;-63
2022/05/18 06:00:58;;;;;;;6.50;3.92;;;;;;;15.38;100.00;90878.72;5013029;28;20125;-63
2022/05/18 06:03:25;;;;;;;7.80;4.85;;;;;;;15.30;100.00;90885.75;5013048;28;20116;-63
2022/05/18 06:05:51;;;;;;;19.42;7.90;;;;;;;15.07;100.00;90880.09;5013017;28;20041;-63
2022/05/18 06:08:17;;;;;;;11.45;6.70;;;;;;;15.07;100.00;90882.78;5012996;28;20460;-62
2022/05/18 06:10:42;;;;;;;8.85;5.47;;;;;;;14.94;100.00;90890.03;5013077;28;20037;-62
2022/05/18 06:13:10;;;;;;;72.38;39.67;;;;;;;14.89;100.00;90894.84;5013390;28;20507;-62
2022/05/18 06:15:36;;;;;;;8.48;5.32;;;;;;;14.94;100.00;90891.94;5013314;28;20076;-62
2022/05/18 06:18:01;;;;;;;4.97;3.90;;;;;;;14.84;100.00;90892.41;5012749;28;20034;-62
2022/05/18 06:20:27;;;;;;;6.55;3.65;;;;;;;14.80;100.00;90896.84;5012715;28;20038;-62
2022/05/18 06:22:53;;;;;;;10.32;6.57;;;;;;;14.78;100.00;90904.44;5012901;28;20057;-63
2022/05/18 06:25:18;;;;;;;18.00;9.25;;;;;;;14.73;100.00;90893.94;5012693;28;20497;-62
2022/05/18 06:27:44;;;;;;;7.32;4.45;;;;;;;14.75;100.00;90899.75;5012560;28;20026;-63
2022/05/18 06:30:13;;;;;;;8.15;4.40;;;;;;;14.85;100.00;90900.09;5012579;28;20049;-63
2022/05/18 06:32:38;;;;;;;8.75;4.60;;;;;;;14.72;100.00;90903.09;5012496;28;20134;-62
2022/05/18 06:35:05;;;;;;;6.32;4.25;;;;;;;14.67;100.00;90906.75;5012534;28;20508;-62
2022/05/18 06:37:31;;;;;;;7.00;4.28;;;;;;;14.52;100.00;90908.22;5012357;28;20569;-62
2022/05/18 06:39:56;;;;;;;6.40;4.13;;;;;;;14.46;100.00;90906.84;5012355;28;20061;-63
2022/05/18 06:42:22;;;;;;;7.32;4.45;;;;;;;14.35;100.00;90903.00;5012356;28;20501;-63
2022/05/18 06:44:47;;;;;;;8.00;4.30;;;;;;;14.36;100.00;90912.59;5012339;28;20034;-62
2022/05/18 06:47:13;;;;;;;11.50;5.05;;;;;;;14.20;100.00;90917.00;5012300;28;20038;-62
2022/05/18 06:49:40;;;;;;;10.32;6.65;;;;;;;14.00;100.00;90921.28;5011942;28;20053;-62
2022/05/18 06:52:07;;;;;;;11.10;4.80;;;;;;;13.80;100.00;90925.56;5012246;28;20037;-64
2022/05/18 06:54:32;;;;;;;5.82;4.10;;;;;;;13.75;100.00;90931.13;5012109;28;20042;-64
2022/05/18 06:56:58;;;;;;;6.30;4.20;;;;;;;13.64;100.00;90940.63;5012177;28;20087;-64
2022/05/18 06:59:23;;;;;;;8.65;5.43;;;;;;;13.62;100.00;90937.50;5011930;28;20034;-64
2022/05/18 07:01:49;;;;;;;7.10;4.50;;;;;;;13.66;100.00;90939.19;5012040;28;20466;-64
2022/05/18 07:04:14;;;;;;;5.78;4.40;;;;;;;13.65;100.00;90948.31;5012212;28;20037;-61
2022/05/18 07:06:43;;;;;;;6.88;4.32;;;;;;;13.62;100.00;90948.19;5011742;28;20480;-62
2022/05/18 07:09:17;;;;;;;5.63;3.88;;;;;;;13.62;100.00;90954.31;5011761;28;20038;-62
2022/05/18 07:11:46;;;;;;;7.55;5.22;;;;;;;13.61;100.00;90957.34;5011886;28;20033;-62
2022/05/18 07:14:12;;;;;;;7.22;5.75;;;;;;;13.46;100.00;90953.34;5012117;28;20433;-62
2022/05/18 07:16:40;;;;;;;8.32;5.70;;;;;;;13.40;100.00;90955.41;5011813;28;20058;-62
2022/05/18 07:19:06;;;;;;;6.65;4.32;;;;;;;13.53;100.00;90960.84;5011550;28;20122;-62
2022/05/18 07:21:33;;;;;;;7.85;4.70;;;;;;;13.56;100.00;90968.19;5011578;28;20038;-62
2022/05/18 07:23:58;;;;;;;5.35;4.00;;;;;;;13.39;100.00;90964.53;5011853;28;20104;-61
2022/05/18 07:26:25;;;;;;;7.03;3.97;;;;;;;13.38;100.00;90972.88;5011556;28;20030;-61
2022/05/18 07:28:51;;;;;;;7.43;4.75;;;;;;;13.30;100.00;90971.84;5011337;28;20042;-61
2022/05/18 07:31:19;;;;;;;4.68;3.58;;;;;;;13.38;100.00;90979.00;5011488;28;20037;-62
2022/05/18 07:33:46;;;;;;;14.75;8.95;;;;;;;13.45;100.00;90981.97;5011413;28;20034;-61
2022/05/18 07:36:12;;;;;;;5.85;4.05;;;;;;;13.49;100.00;90984.75;5011474;28;20407;-61
2022/05/18 07:38:39;;;;;;;6.93;4.38;;;;;;;13.41;100.00;90988.25;5011265;28;20038;-62
2022/05/18 07:41:06;;;;;;;5.45;4.00;;;;;;;13.39;100.00;91001.16;5011268;28;20698;-62
2022/05/18 07:43:31;;;;;;;6.82;4.88;;;;;;;13.41;100.00;90991.72;5011352;28;20046;-62
2022/05/18 07:45:57;;;;;;;7.95;4.45;;;;;;;13.60;100.00;91001.22;5011269;28;20053;-62
2022/05/18 07:48:24;;;;;;;7.57;3.90;;;;;;;13.73;100.00;90992.16;5010950;28;20492;-62
2022/05/18 07:50:50;;;;;;;11.32;4.85;;;;;;;13.75;100.00;90997.97;5011028;28;20424;-62
2022/05/18 07:53:16;;;;;;;6.38;3.25;;;;;;;13.69;100.00;91001.91;5009177;28;20550;-62
2022/05/18 07:55:41;;;;;;;4.05;3.63;;;;;;;13.72;100.00;90999.38;5001525;28;20061;-62
2022/05/18 07:58:10;;;;;;;5.53;4.43;;;;;;;13.76;100.00;91002.19;5009735;28;20480;-63
2022/05/18 08:00:36;;;;;;;6.03;4.00;;;;;;;13.84;100.00;90993.31;5011375;28;20120;-61
2022/05/18 08:03:02;;;;;;;4.45;3.13;;;;;;;13.85;100.00;90991.41;5006480;28;20034;-61
2022/05/18 08:05:30;;;;;;;4.97;3.70;;;;;;;13.99;100.00;90998.06;5011128;28;20061;-62
2022/05/18 08:07:56;;;;;;;4.07;3.20;;;;;;;14.11;100.00;90983.97;5004382;28;20466;-62
2022/05/18 08:15:53;;;;;;;4.53;3.67;;;;;;;14.36;100.00;90991.00;5009299;28;20199;-61
2022/05/18 08:18:20;;;;;;;5.35;4.10;;;;;;;14.44;100.00;90992.03;5008602;28;20030;-62
2022/05/18 08:20:46;;;;;;;4.82;3.97;;;;;;;14.55;100.00;90993.22;5013095;28;20065;-63
2022/05/18 08:23:12;;;;;;;6.45;3.60;;;;;;;14.77;100.00;90993.91;5000159;28;20026;-64
2022/05/18 08:25:38;;;;;;;6.15;3.20;;;;;;;14.87;100.00;90996.97;4995191;28;20041;-63
2022/05/18 08:28:04;;;;;;;5.47;3.15;;;;;;;14.88;100.00;90997.75;4994981;28;20031;-63
2022/05/18 08:30:31;;;;;;;2.85;2.50;;;;;;;14.83;100.00;90984.53;4995014;28;20436;-62
2022/05/18 08:33:01;;;;;;;4.63;3.50;;;;;;;14.95;100.00;90997.97;4995134;28;20046;-62
2022/05/18 08:35:27;;;;;;;8.27;4.93;;;;;;;15.09;100.00;91000.31;4997230;28;20042;-62
2022/05/18 08:37:54;;;;;;;10.25;5.97;;;;;;;15.18;100.00;91001.78;4994713;28;20080;-62
2022/05/18 08:40:35;;;;;;;6.07;4.65;;;;;;;15.25;100.00;91003.91;4994868;28;20038;-62
2022/05/18 08:43:05;;;;;;;4.78;3.92;;;;;;;15.45;100.00;90994.19;4994890;28;20054;-63
2022/05/18 08:45:34;;;;;;;8.00;6.30;;;;;;;15.36;100.00;90993.53;4994926;28;20099;-62
2022/05/18 08:48:07;;;;;;;8.93;4.85;;;;;;;15.49;100.00;91003.91;4994780;28;20101;-63
2022/05/18 08:50:34;;;;;;;4.15;3.22;;;;;;;15.42;100.00;91002.91;4994576;28;20504;-63
2022/05/18 08:53:18;;;;;;;4.53;3.67;;;;;;;15.32;100.00;91003.38;4994738;28;20039;-63
2022/05/18 08:55:47;;;;;;;;;;;;;;;15.55;100.00;91005.25;4995209;28;20030;-62
2022/05/18 08:58:26;;;;;;;5.35;3.83;;;;;;;15.66;100.00;90991.41;4991122;28;20284;-63
2022/05/18 09:01:06;;;;;;;3.70;2.72;;;;;;;15.74;100.00;90980.56;4994637;28;20038;-63
2022/05/18 09:03:45;;;;;;;4.93;3.83;;;;;;;15.94;100.00;90988.78;5002810;28;20080;-65
2022/05/18 09:06:11;;;;;;;5.53;3.80;;;;;;;16.36;100.00;90981.94;5013472;28;20034;-64
2022/05/18 09:08:46;;;;;;;4.57;3.85;;;;;;;16.26;100.00;90982.44;5013297;28;20073;-65
2022/05/18 09:11:21;;;;;;;5.03;3.67;;;;;;;16.24;100.00;90983.88;4994231;28;20527;-65
2022/05/18 09:13:47;;;;;;;4.78;3.70;;;;;;;16.40;100.00;90982.81;4994330;28;20495;-64
2022/05/18 09:16:18;;;;;;;6.07;4.28;;;;;;;16.58;100.00;90982.53;4994117;28;20117;-65
2022/05/18 09:19:19;;;;;;;5.25;3.75;;;;;;;16.69;100.00;90979.00;4993824;28;20045;-64
2022/05/18 09:22:01;;;;;;;4.65;3.28;;;;;;;16.86;100.00;90972.53;4996077;28;20105;-65
2022/05/18 09:24:30;;;;;;;6.20;5.07;;;;;;;17.09;100.00;90974.66;4994050;28;20043;-65
2022/05/18 09:27:18;;;;;;;5.18;4.55;;;;;;;17.74;100.00;90975.06;4993717;28;20192;-64
2022/05/18 09:29:51;;;;;;;5.75;4.70;;;;;;;17.58;100.00;90969.66;4995754;28;20061;-65
2022/05/18 09:32:29;;;;;;;7.18;5.38;;;;;;;17.21;100.00;90969.19;4993946;28;20520;-64
2022/05/18 09:35:52;;;;;;;8.63;5.38;;;;;;;17.54;100.00;90969.59;4993750;28;20038;-64
2022/05/18 09:38:45;;;;;;;6.40;4.78;;;;;;;18.00;100.00;90961.78;4999521;28;20058;-64
2022/05/18 09:41:15;;;;;;;6.03;4.78;;;;;;;18.98;100.00;90958.72;4993681;28;20100;-64
2022/05/18 09:44:19;;;;;;;9.35;5.28;;;;;;;19.33;100.00;90965.84;4993601;28;20761;-64
2022/05/18 09:46:46;;;;;;;7.95;4.93;;;;;;;19.01;100.00;90954.50;4993665;28;20085;-64
2022/05/18 09:49:20;;;;;;;6.30;4.75;;;;;;;19.26;100.00;90963.81;4993025;28;20038;-64
2022/05/18 09:51:47;;;;;;;6.65;4.57;;;;;;;18.68;100.00;90955.06;4992929;28;20046;-64
2022/05/18 09:54:13;;;;;;;6.18;4.93;;;;;;;19.62;100.00;90962.47;4993384;28;20089;-65
2022/05/18 09:57:05;;;;;;;7.18;4.97;;;;;;;19.90;98.53;90951.31;4993080;28;20508;-65
2022/05/18 09:59:36;;;;;;;7.03;4.97;;;;;;;20.76;94.56;90942.34;4993227;28;20424;-64
2022/05/18 10:07:48;;;;;;;5.65;4.15;;;;;;;21.20;79.85;90942.41;5012538;28;20436;-64
2022/05/18 10:10:19;;;;;;;7.43;6.05;;;;;;;20.83;83.31;90957.91;5012748;28;20416;-64
2022/05/18 10:12:56;;;;;;;6.30;4.63;;;;;;;20.46;83.53;90958.63;5012515;28;20074;-64
2022/05/18 10:15:24;;;;;;;9.50;4.57;;;;;;;18.97;93.42;90962.53;5012023;28;20054;-64
2022/05/18 10:18:00;;;;;;;5.82;4.45;;;;;;;18.07;100.00;90953.06;5011967;28;20041;-63
2022/05/18 10:20:31;;;;;;;5.88;4.80;;;;;;;18.14;100.00;90955.91;5012263;28;20037;-64
2022/05/18 10:22:58;;;;;;;6.50;5.15;;;;;;;18.14;100.00;90967.44;5011543;28;20045;-64
2022/05/18 10:25:47;;;;;;;8.50;5.25;;;;;;;17.92;100.00;90957.38;5012255;28;20168;-64
2022/05/18 10:28:26;;;;;;;6.57;5.00;;;;;;;18.38;100.00;90942.16;5011580;28;20072;-64
2022/05/18 10:30:58;;;;;;;6.32;4.50;;;;;;;20.05;94.93;90944.19;5012149;28;20042;-64
2022/05/18 10:33:39;;;;;;;5.47;4.15;;;;;;;23.13;70.79;90943.56;5012174;28;20044;-64
2022/05/18 10:36:16;;;;;;;5.65;4.30;;;;;;;24.54;64.03;90950.13;5011950;28;20120;-64
2022/05/18 10:39:07;;;;;;;5.38;3.97;;;;;;;23.66;61.49;90965.34;5012034;28;20526;-64
2022/05/18 10:41:45;;;;;;;4.72;4.03;;;;;;;21.05;75.50;90958.88;5010209;28;20504;-64
2022/05/18 10:44:20;;;;;;;4.55;3.50;;;;;;;21.35;77.41;90958.81;5012007;28;20522;-64
2022/05/18 10:46:48;;;;;;;4.95;3.70;;;;;;;21.14;76.38;90953.94;5011976;28;20052;-64
2022/05/18 10:49:30;;;;;;;4.85;3.85;;;;;;;20.20;79.66;90967.53;5011335;28;20117;-64
2022/05/18 10:52:17;;;;;;;4.30;3.22;;;;;;;20.22;78.68;90967.97;5011215;28;20519;-64
2022/05/18 10:54:51;;;;;;;4.30;3.35;;;;;;;21.00;74.37;90962.72;5011678;28;20500;-64
2022/05/18 10:57:28;;;;;;;7.22;3.65;;;;;;;20.52;81.07;90972.59;5011594;28;20041;-63
2022/05/18 11:00:20;;;;;;;8.20;4.30;;;;;;;20.25;83.08;90977.25;5011268;28;20488;-64
2022/05/18 11:03:07;;;;;;;3.40;2.72;;;;;;;18.99;91.52;90986.44;5010164;28;20053;-64
2022/05/18 11:05:53;;;;;;;2.70;2.03;;;;;;;16.17;100.00;91005.94;5011420;28;20115;-64
2022/05/18 11:08:24;;;;;;;5.47;3.13;;;;;;;14.87;100.00;91004.22;5011247;28;20038;-64
2022/05/18 11:11:00;;;;;;;9.30;3.25;;;;;;;14.17;100.00;91019.34;5011146;28;20022;-63
2022/05/18 11:13:35;;;;;;;5.05;2.90;;;;;;;13.37;100.00;91027.41;5011496;28;20038;-63
2022/05/18 11:20:37;;;;;;;4.20;3.28;;;;;;;12.03;100.00;91058.81;5056120;27;1313702;-64
2022/05/18 11:23:32;;;;;;;4.03;2.53;;;;;;;12.33;100.00;91042.97;5088268;28;20032;-67
2022/05/18 11:26:05;;;;;;;4.47;2.90;;;;;;;12.53;100.00;91044.97;5088133;28;20034;-66
2022/05/18 11:28:50;;;;;;;4.95;3.88;;;;;;;12.64;100.00;91048.88;5088186;28;20082;-68
2022/05/18 11:31:48;;;;;;;3.03;2.72;;;;;;;12.83;100.00;91043.97;5088184;28;20042;-67
2022/05/18 11:34:29;;;;;;;3.53;2.85;;;;;;;13.06;100.00;91046.38;5069547;28;20024;-67
2022/05/18 11:37:10;;;;;;;4.53;3.83;;;;;;;13.40;100.00;91050.81;5088066;28;20059;-67
2022/05/18 11:40:03;;;;;;;5.18;3.72;;;;;;;13.94;100.00;91062.47;5087935;28;20024;-67
2022/05/18 11:42:37;;;;;;;2.33;2.03;;;;;;;14.51;100.00;91053.84;5069620;28;20115;-67
2022/05/18 11:45:05;;;;;;;3.88;2.75;;;;;;;14.21;100.00;91052.38;5087938;28;20440;-68
2022/05/18 11:47:40;;;;;;;2.42;2.20;;;;;;;14.21;100.00;91057.72;5087632;28;20085;-69
2022/05/18 11:50:31;;;;;;;5.70;3.00;;;;;;;14.07;100.00;91074.03;5087670;28;20111;-68
2022/05/18 11:53:06;;;;;;;3.30;2.90;;;;;;;13.56;100.00;91072.44;5088213;28;20386;-67
2022/05/18 11:55:37;;;;;;;5.43;3.70;;;;;;;13.26;100.00;91093.81;5087933;28;20512;-67
2022/05/18 11:58:15;;;;;;;3.40;2.75;;;;;;;13.31;100.00;91101.63;5087651;28;20052;-67
2022/05/18 12:00:56;;;;;;;6.00;3.42;;;;;;;13.53;100.00;91103.28;5087742;28;20032;-67